createdAt,value
2017-10-06T00:00:08.405Z,68.76
2017-10-06T00:02:35.920Z,67.87
2017-10-06T00:05:03.445Z,68.80
2017-10-06T00:07:30.997Z,70.14
2017-10-06T00:09:58.522Z,69.19
2017-10-06T00:12:26.274Z,69.08
2017-10-06T00:14:53.823Z,68.45
2017-10-06T00:17:21.719Z,68.25
2017-10-06T00:19:49.562Z,68.21
2017-10-06T00:22:17.126Z,67.87
2017-10-06T00:24:44.657Z,68.20
2017-10-06T00:27:12.238Z,67.89
2017-10-06T00:29:39.786Z,68.81
2017-10-06T00:32:07.442Z,69.53
2017-10-06T00:34:34.972Z,69.62
2017-10-06T00:37:02.527Z,69.15
2017-10-06T00:39:30.178Z,69.05
2017-10-06T00:41:57.769Z,68.30
2017-10-06T00:44:25.360Z,68.38
2017-10-06T00:46:53.143Z,68.57
2017-10-06T00:49:20.684Z,68.54
2017-10-06T00:51:48.214Z,68.56
2017-10-06T00:54:15.805Z,67.87
2017-10-06T00:56:43.673Z,67.61
2017-10-06T00:59:11.276Z,67.15
2017-10-06T01:01:38.930Z,67.48
2017-10-06T01:04:06.535Z,68.56
2017-10-06T01:06:34.354Z,67.99
2017-10-06T01:09:01.921Z,68.51
2017-10-06T01:11:29.497Z,67.81
2017-10-06T01:13:57.032Z,68.19
2017-10-06T01:16:24.630Z,68.31
2017-10-06T01:18:53.107Z,68.01
2017-10-06T01:21:20.647Z,68.07
2017-10-06T01:23:48.194Z,69.01
2017-10-06T01:26:16.092Z,68.88
2017-10-06T01:28:43.932Z,68.82
2017-10-06T01:31:11.519Z,68.39
2017-10-06T01:33:39.088Z,68.69
2017-10-06T01:36:07.428Z,68.26
2017-10-06T01:38:35.019Z,68.32
2017-10-06T01:41:02.581Z,68.68
2017-10-06T01:43:30.116Z,69.04
2017-10-06T01:45:57.896Z,70.01
2017-10-06T01:48:25.403Z,70.88
2017-10-06T01:50:53.043Z,69.93
2017-10-06T01:53:20.658Z,68.87
2017-10-06T01:55:48.184Z,68.90
2017-10-06T01:58:15.703Z,68.49
2017-10-06T02:00:43.293Z,67.86
2017-10-06T02:03:10.821Z,67.61
2017-10-06T02:05:38.360Z,68.13
2017-10-06T02:08:05.934Z,68.84
2017-10-06T02:10:33.486Z,69.28
2017-10-06T02:13:01.006Z,69.08
2017-10-06T02:15:28.561Z,68.95
2017-10-06T02:17:56.113Z,67.84
2017-10-06T02:20:23.763Z,67.36
2017-10-06T02:22:51.349Z,67.80
2017-10-06T02:25:18.890Z,67.80
2017-10-06T02:27:46.463Z,67.69
2017-10-06T02:30:14.040Z,68.92
2017-10-06T02:32:41.556Z,68.79
2017-10-06T02:35:09.128Z,68.56
2017-10-06T02:37:36.716Z,68.54
2017-10-06T02:40:04.263Z,68.73
2017-10-06T02:42:31.816Z,68.14
2017-10-06T02:44:59.386Z,68.42
2017-10-06T02:47:27.226Z,68.24
2017-10-06T02:49:54.767Z,68.14
2017-10-06T02:52:22.552Z,67.68
2017-10-06T02:54:50.169Z,68.15
2017-10-06T02:57:17.695Z,67.94
2017-10-06T02:59:45.253Z,68.46
2017-10-06T03:02:12.824Z,69.08
2017-10-06T03:04:40.347Z,68.63
2017-10-06T03:07:08.126Z,68.98
2017-10-06T03:09:35.671Z,71.10
2017-10-06T03:12:03.215Z,70.43
2017-10-06T03:14:30.742Z,70.18
2017-10-06T03:16:58.346Z,69.32
2017-10-06T03:19:25.883Z,69.71
2017-10-06T03:21:53.423Z,69.58
2017-10-06T03:24:21.046Z,69.29
2017-10-06T03:26:48.585Z,68.74
2017-10-06T03:29:16.189Z,68.72
2017-10-06T03:31:43.927Z,68.59
2017-10-06T03:34:11.495Z,68.54
2017-10-06T03:36:39.295Z,68.50
2017-10-06T03:39:06.876Z,68.94
2017-10-06T03:41:34.444Z,68.54
2017-10-06T03:44:01.993Z,68.91
2017-10-06T03:46:29.570Z,69.34
2017-10-06T03:48:57.087Z,68.96
2017-10-06T03:51:24.630Z,69.27
2017-10-06T03:53:52.580Z,69.01
2017-10-06T03:56:20.123Z,68.77
2017-10-06T03:58:47.682Z,68.82
2017-10-06T04:01:15.255Z,69.39
2017-10-06T04:03:42.775Z,69.44
2017-10-06T04:06:10.347Z,69.67
2017-10-06T04:08:37.927Z,69.26
2017-10-06T04:11:05.489Z,70.33
2017-10-06T04:13:33.658Z,69.61
2017-10-06T04:16:01.222Z,82.20
2017-10-06T04:18:28.750Z,74.85
2017-10-06T04:20:56.379Z,62.36
2017-10-06T04:23:23.975Z,64.23
2017-10-06T04:25:51.537Z,64.95
2017-10-06T04:28:19.114Z,65.20
2017-10-06T04:30:46.712Z,66.00
2017-10-06T04:33:14.248Z,66.16
2017-10-06T04:35:41.782Z,65.79
2017-10-06T04:38:09.406Z,65.30
2017-10-06T04:40:37.281Z,64.82
2017-10-06T04:43:04.908Z,64.75
2017-10-06T04:45:32.510Z,64.06
2017-10-06T04:48:00.066Z,65.42
2017-10-06T04:50:27.695Z,65.12
2017-10-06T04:52:55.305Z,65.09
2017-10-06T04:55:23.119Z,65.07
2017-10-06T04:57:50.773Z,64.91
2017-10-06T05:00:18.405Z,64.24
2017-10-06T05:02:45.955Z,65.40
2017-10-06T05:05:13.552Z,65.37
2017-10-06T05:07:41.109Z,64.44
2017-10-06T05:10:08.875Z,61.44
2017-10-06T05:12:36.479Z,60.20
2017-10-06T05:15:04.101Z,57.87
2017-10-06T05:17:31.684Z,56.15
2017-10-06T05:19:59.315Z,57.04
2017-10-06T05:22:26.890Z,55.14
2017-10-06T05:24:54.475Z,53.45
2017-10-06T05:27:22.083Z,51.63
2017-10-06T05:29:49.703Z,49.80
2017-10-06T05:32:17.377Z,47.94
2017-10-06T05:34:44.929Z,46.44
2017-10-06T05:37:12.526Z,44.00
2017-10-06T05:39:40.142Z,46.23
2017-10-06T05:42:07.694Z,45.89
2017-10-06T05:44:35.246Z,46.39
2017-10-06T05:47:02.789Z,43.79
2017-10-06T05:49:30.334Z,42.38
2017-10-06T05:51:57.910Z,42.07
2017-10-06T05:54:25.522Z,42.29
2017-10-06T05:56:53.049Z,41.37
2017-10-06T05:59:20.587Z,41.07
2017-10-06T06:01:48.217Z,40.60
2017-10-06T06:04:15.792Z,39.82
2017-10-06T06:06:43.338Z,39.61
2017-10-06T06:09:10.947Z,38.15
2017-10-06T06:11:38.539Z,37.33
2017-10-06T06:14:06.089Z,36.95
2017-10-06T06:16:33.710Z,35.38
2017-10-06T06:19:01.250Z,35.83
2017-10-06T06:21:29.645Z,34.66
2017-10-06T06:23:57.306Z,33.88
2017-10-06T06:26:25.159Z,33.69
2017-10-06T06:28:52.814Z,33.65
2017-10-06T06:31:20.418Z,34.10
2017-10-06T06:33:48.183Z,35.24
2017-10-06T06:36:15.761Z,34.59
2017-10-06T06:38:43.448Z,33.70
2017-10-06T06:41:11.011Z,33.03
2017-10-06T06:43:38.562Z,33.43
2017-10-06T06:46:06.182Z,33.72
2017-10-06T06:48:33.741Z,34.03
2017-10-06T06:51:01.307Z,33.13
2017-10-06T06:53:28.978Z,32.50
2017-10-06T06:55:56.550Z,32.33
2017-10-06T06:58:24.204Z,31.19
2017-10-06T07:00:51.884Z,30.63
2017-10-06T07:03:19.447Z,30.85
2017-10-06T07:05:47.192Z,31.95
2017-10-06T07:08:14.795Z,31.97
2017-10-06T07:10:42.574Z,33.33
2017-10-06T07:13:10.203Z,35.58
2017-10-06T07:15:37.835Z,34.69
2017-10-06T07:18:05.373Z,35.10
2017-10-06T07:20:32.944Z,35.19
2017-10-06T07:23:00.534Z,34.85
2017-10-06T07:25:28.282Z,33.91
2017-10-06T07:27:55.906Z,34.12
2017-10-06T07:30:23.518Z,33.41
2017-10-06T07:32:52.366Z,33.50
2017-10-06T07:35:19.968Z,33.19
2017-10-06T07:37:48.349Z,31.39
2017-10-06T07:40:15.925Z,31.26
2017-10-06T07:42:43.479Z,30.57
2017-10-06T07:45:11.098Z,30.35
2017-10-06T07:47:38.635Z,29.46
2017-10-06T07:50:06.179Z,29.51
2017-10-06T07:52:34.206Z,29.53
2017-10-06T07:55:01.848Z,29.96
2017-10-06T07:57:29.592Z,29.31
2017-10-06T07:59:57.188Z,29.93
2017-10-06T08:02:24.806Z,29.76
2017-10-06T08:04:52.391Z,29.35
2017-10-06T08:07:19.983Z,29.97
2017-10-06T08:09:47.588Z,30.26
2017-10-06T08:12:15.358Z,29.67
2017-10-06T08:14:42.961Z,30.15
2017-10-06T08:17:10.570Z,28.73
2017-10-06T08:19:38.969Z,28.68
2017-10-06T08:22:06.557Z,30.83
2017-10-06T08:24:34.168Z,31.10
2017-10-06T08:27:01.949Z,30.72
2017-10-06T08:29:29.740Z,30.60
2017-10-06T08:31:57.359Z,29.58
2017-10-06T08:34:24.944Z,29.03
2017-10-06T08:36:52.555Z,28.65
2017-10-06T08:39:20.163Z,29.58
2017-10-06T08:41:47.980Z,28.94
2017-10-06T08:44:15.573Z,30.08
2017-10-06T08:46:43.268Z,29.38
2017-10-06T08:49:10.850Z,29.34
2017-10-06T08:51:39.982Z,28.71
2017-10-06T08:54:07.590Z,28.07
2017-10-06T08:56:35.205Z,27.45
2017-10-06T08:59:02.809Z,27.57
2017-10-06T09:01:30.407Z,27.50
2017-10-06T09:03:57.979Z,28.18
2017-10-06T09:06:25.568Z,27.41
2017-10-06T09:08:53.205Z,26.99
2017-10-06T09:11:20.840Z,26.85
2017-10-06T09:13:49.160Z,26.66
2017-10-06T09:16:16.754Z,27.01
2017-10-06T09:18:44.343Z,27.03
2017-10-06T09:21:11.878Z,25.25
2017-10-06T09:23:39.471Z,26.05
2017-10-06T09:26:07.657Z,26.97
2017-10-06T09:28:35.370Z,27.04
2017-10-06T09:31:03.004Z,27.64
2017-10-06T09:33:30.573Z,28.58
2017-10-06T09:35:58.179Z,29.02
2017-10-06T09:38:25.809Z,29.88
2017-10-06T09:40:53.394Z,30.95
2017-10-06T09:43:20.929Z,31.33
2017-10-06T09:45:48.582Z,31.87
2017-10-06T09:48:16.195Z,32.03
2017-10-06T09:50:43.781Z,32.04
2017-10-06T09:53:11.369Z,32.42
2017-10-06T09:55:39.719Z,32.09
2017-10-06T09:58:07.277Z,31.98
2017-10-06T10:00:34.898Z,32.63
2017-10-06T10:03:02.509Z,31.48
2017-10-06T10:05:30.124Z,31.33
2017-10-06T10:07:57.730Z,30.83
2017-10-06T10:10:25.283Z,31.33
2017-10-06T10:12:52.872Z,31.55
2017-10-06T10:15:20.503Z,32.00
2017-10-06T10:17:48.135Z,31.33
2017-10-06T10:20:15.717Z,31.92
2017-10-06T10:22:43.522Z,31.51
2017-10-06T10:25:11.078Z,31.13
2017-10-06T10:27:38.655Z,31.42
2017-10-06T10:30:06.670Z,31.54
2017-10-06T10:32:34.251Z,31.29
2017-10-06T10:35:01.859Z,30.73
2017-10-06T10:37:29.448Z,30.70
2017-10-06T10:39:57.256Z,30.83
2017-10-06T10:42:24.839Z,31.23
2017-10-06T10:44:52.463Z,30.83
2017-10-06T10:47:20.131Z,31.04
2017-10-06T10:49:47.718Z,31.41
2017-10-06T10:52:15.347Z,30.96
2017-10-06T10:54:42.906Z,30.99
2017-10-06T10:57:10.478Z,31.04
2017-10-06T10:59:38.101Z,30.27
2017-10-06T11:02:05.699Z,30.48
2017-10-06T11:04:33.470Z,29.66
2017-10-06T11:07:01.297Z,29.68
2017-10-06T11:09:28.904Z,29.91
2017-10-06T11:11:56.471Z,30.40
2017-10-06T11:14:24.099Z,30.01
2017-10-06T11:16:51.669Z,29.96
2017-10-06T11:19:19.275Z,29.94
2017-10-06T11:21:46.850Z,29.92
2017-10-06T11:24:14.460Z,29.86
2017-10-06T11:26:42.085Z,29.77
2017-10-06T11:29:09.668Z,29.78
2017-10-06T11:31:37.302Z,30.23
2017-10-06T11:34:04.950Z,30.01
2017-10-06T11:36:32.530Z,30.45
2017-10-06T11:39:00.118Z,31.22
2017-10-06T11:41:27.671Z,30.83
2017-10-06T11:43:55.300Z,30.59
2017-10-06T11:46:23.003Z,30.40
2017-10-06T11:48:50.578Z,30.40
2017-10-06T11:51:18.255Z,30.83
2017-10-06T11:53:45.897Z,30.52
2017-10-06T11:56:13.534Z,30.28
2017-10-06T11:58:41.319Z,31.27
2017-10-06T12:01:08.882Z,30.52
2017-10-06T12:03:36.547Z,30.15
2017-10-06T12:06:04.124Z,29.48
2017-10-06T12:08:31.761Z,30.16
2017-10-06T12:10:59.635Z,30.02
2017-10-06T12:13:27.184Z,30.07
2017-10-06T12:15:54.852Z,29.81
2017-10-06T12:18:23.282Z,29.95
2017-10-06T12:20:50.882Z,30.15
2017-10-06T12:23:18.498Z,29.23
2017-10-06T12:25:46.070Z,29.45
2017-10-06T12:28:13.612Z,29.10
2017-10-06T12:30:41.235Z,29.67
2017-10-06T12:33:08.851Z,29.45
2017-10-06T12:35:36.626Z,29.99
2017-10-06T12:38:04.250Z,30.39
2017-10-06T12:40:31.906Z,30.71
2017-10-06T12:42:59.470Z,31.28
2017-10-06T12:45:27.282Z,32.50
2017-10-06T12:47:54.829Z,33.68
2017-10-06T12:50:22.375Z,34.87
2017-10-06T12:52:49.966Z,36.20
2017-10-06T12:55:17.520Z,38.23
2017-10-06T12:57:45.139Z,39.14
2017-10-06T13:00:12.746Z,39.91
2017-10-06T13:02:40.369Z,40.27
2017-10-06T13:05:07.925Z,40.53
2017-10-06T13:07:35.537Z,40.79
2017-10-06T13:10:03.144Z,41.30
2017-10-06T13:12:30.706Z,41.42
2017-10-06T13:14:58.315Z,42.11
2017-10-06T13:17:25.838Z,42.21
2017-10-06T13:19:53.401Z,42.72
2017-10-06T13:22:20.998Z,43.53
2017-10-06T13:24:48.550Z,43.30
2017-10-06T13:27:16.167Z,43.84
2017-10-06T13:29:43.749Z,44.11
2017-10-06T13:32:11.359Z,45.00
2017-10-06T13:34:38.914Z,45.31
2017-10-06T13:37:06.426Z,46.37
2017-10-06T13:39:34.013Z,46.54
2017-10-06T13:42:01.576Z,47.17
2017-10-06T13:44:29.367Z,47.07
2017-10-06T13:46:56.953Z,46.80
2017-10-06T13:49:24.576Z,47.65
2017-10-06T13:51:52.438Z,47.66
2017-10-06T13:54:20.670Z,48.60
2017-10-06T13:56:48.218Z,49.39
2017-10-06T13:59:15.807Z,49.70
2017-10-06T14:01:43.533Z,49.22
2017-10-06T14:04:11.348Z,49.26
2017-10-06T14:06:40.046Z,50.11
2017-10-06T14:09:07.649Z,49.89
2017-10-06T14:11:35.402Z,49.70
2017-10-06T14:14:03.079Z,49.37
2017-10-06T14:16:30.668Z,48.97
2017-10-06T14:18:58.227Z,49.37
2017-10-06T14:21:25.764Z,49.78
2017-10-06T14:23:53.351Z,50.14
2017-10-06T14:26:21.573Z,50.68
2017-10-06T14:28:49.104Z,50.90
2017-10-06T14:31:16.682Z,51.27
2017-10-06T14:33:44.210Z,51.63
2017-10-06T14:36:12.235Z,52.28
2017-10-06T14:38:39.842Z,52.93
2017-10-06T14:41:07.371Z,52.96
2017-10-06T14:43:35.129Z,52.68
2017-10-06T14:46:02.704Z,52.29
2017-10-06T14:48:30.255Z,52.88
2017-10-06T14:50:58.509Z,53.48
2017-10-06T14:53:26.127Z,53.50
2017-10-06T14:55:53.878Z,53.92
2017-10-06T14:58:23.782Z,54.32
2017-10-06T15:00:51.740Z,54.54
2017-10-06T15:03:19.392Z,54.27
2017-10-06T15:05:47.019Z,54.99
2017-10-06T15:08:14.661Z,55.21
2017-10-06T15:10:43.135Z,55.21
2017-10-06T15:13:10.851Z,54.86
2017-10-06T15:15:38.465Z,55.26
2017-10-06T15:18:06.443Z,55.24
2017-10-06T15:20:34.042Z,55.59
2017-10-06T15:23:01.791Z,55.60
2017-10-06T15:25:29.365Z,55.95
2017-10-06T15:27:57.124Z,55.64
2017-10-06T15:30:25.712Z,55.80
2017-10-06T15:32:53.386Z,55.79
2017-10-06T15:35:23.739Z,55.73
2017-10-06T15:37:51.542Z,55.95
2017-10-06T15:40:19.207Z,56.13
2017-10-06T15:42:47.366Z,56.83
2017-10-06T15:45:14.927Z,56.26
2017-10-06T15:47:42.586Z,56.20
2017-10-06T15:50:10.145Z,56.85
2017-10-06T15:52:37.812Z,56.65
2017-10-06T15:55:05.436Z,57.28
2017-10-06T15:57:33.046Z,56.97
2017-10-06T16:00:00.679Z,56.74
2017-10-06T16:02:28.265Z,56.53
2017-10-06T16:04:55.857Z,56.77
2017-10-06T16:07:23.439Z,57.02
2017-10-06T16:09:51.110Z,57.14
2017-10-06T16:12:20.049Z,56.47
2017-10-06T16:14:47.656Z,56.55
2017-10-06T16:17:15.456Z,56.35
2017-10-06T16:19:43.067Z,56.71
2017-10-06T16:22:10.667Z,56.56
2017-10-06T16:24:38.233Z,57.49
2017-10-06T16:27:06.636Z,58.06
2017-10-06T16:29:34.471Z,58.67
2017-10-06T16:32:02.099Z,58.51
2017-10-06T16:34:29.843Z,58.14
2017-10-06T16:36:57.684Z,58.38
2017-10-06T16:39:25.495Z,58.78
2017-10-06T16:41:53.091Z,58.61
2017-10-06T16:44:20.659Z,58.92
2017-10-06T16:46:48.337Z,58.33
2017-10-06T16:49:15.930Z,58.52
2017-10-06T16:51:43.545Z,59.27
2017-10-06T16:54:11.215Z,59.75
2017-10-06T16:56:38.819Z,59.56
2017-10-06T16:59:09.060Z,59.63
2017-10-06T17:01:37.430Z,60.20
2017-10-06T17:04:06.163Z,60.48
2017-10-06T17:06:33.773Z,61.17
2017-10-06T17:09:02.275Z,61.23
2017-10-06T17:11:29.947Z,61.65
2017-10-06T17:13:57.562Z,62.24
2017-10-06T17:16:26.320Z,62.12
2017-10-06T17:18:55.370Z,62.13
2017-10-06T17:21:26.197Z,62.30
2017-10-06T17:23:55.731Z,61.96
2017-10-06T17:26:23.252Z,62.04
2017-10-06T17:28:51.621Z,62.61
2017-10-06T17:31:19.198Z,62.52
2017-10-06T17:33:46.762Z,62.21
2017-10-06T17:36:15.151Z,63.18
2017-10-06T17:38:42.893Z,63.10
2017-10-06T17:41:10.476Z,62.36
2017-10-06T17:43:38.898Z,62.52
2017-10-06T17:46:06.489Z,62.91
2017-10-06T17:48:34.586Z,63.33
2017-10-06T17:51:02.374Z,63.41
2017-10-06T17:53:30.046Z,63.94
2017-10-06T17:55:57.653Z,65.03
2017-10-06T17:58:25.462Z,63.75
2017-10-06T18:00:53.143Z,63.60
2017-10-06T18:03:20.755Z,64.33
2017-10-06T18:05:48.291Z,63.88
2017-10-06T18:08:16.654Z,64.61
2017-10-06T18:10:45.334Z,64.98
2017-10-06T18:13:17.211Z,64.51
2017-10-06T18:15:45.777Z,65.25
2017-10-06T18:18:13.400Z,64.47
2017-10-06T18:20:41.034Z,64.34
2017-10-06T18:23:08.733Z,64.12
2017-10-06T18:25:36.547Z,63.77
2017-10-06T18:28:04.106Z,63.66
2017-10-06T18:30:31.918Z,63.58
2017-10-06T18:32:59.758Z,63.43
2017-10-06T18:35:27.506Z,62.89
2017-10-06T18:37:55.058Z,62.54
2017-10-06T18:40:22.648Z,62.50
2017-10-06T18:42:50.809Z,62.15
2017-10-06T18:45:18.437Z,62.27
2017-10-06T18:47:46.070Z,61.68
2017-10-06T18:50:13.622Z,61.66
2017-10-06T18:52:41.187Z,61.61
2017-10-06T18:55:08.977Z,61.71
2017-10-06T18:57:37.418Z,61.76
2017-10-06T19:00:08.651Z,61.63
2017-10-06T19:02:36.427Z,61.88
2017-10-06T19:05:04.019Z,61.82
2017-10-06T19:07:31.588Z,62.39
2017-10-06T19:09:59.123Z,62.42
2017-10-06T19:12:26.626Z,62.03
2017-10-06T19:14:54.182Z,61.89
2017-10-06T19:17:22.127Z,61.62
2017-10-06T19:19:49.698Z,61.59
2017-10-06T19:22:17.284Z,61.75
2017-10-06T19:24:44.874Z,62.36
2017-10-06T19:27:12.489Z,61.80
2017-10-06T19:29:40.114Z,62.02
2017-10-06T19:32:07.791Z,62.67
2017-10-06T19:34:35.358Z,62.95
2017-10-06T19:37:09.361Z,63.60
2017-10-06T19:39:37.977Z,63.65
2017-10-06T19:42:05.807Z,64.18
2017-10-06T19:44:33.405Z,64.98
2017-10-06T19:47:00.997Z,64.86
2017-10-06T19:49:29.071Z,65.42
2017-10-06T19:51:57.573Z,64.89
2017-10-06T19:54:27.887Z,65.00
2017-10-06T19:57:00.578Z,65.97
2017-10-06T19:59:30.823Z,65.58
2017-10-06T20:01:58.587Z,65.98
2017-10-06T20:04:28.698Z,66.56
2017-10-06T20:07:01.071Z,66.58
2017-10-06T20:09:31.989Z,66.86
2017-10-06T20:12:11.696Z,66.95
2017-10-06T20:14:57.630Z,66.76
2017-10-06T20:17:31.246Z,66.96
2017-10-06T20:20:03.521Z,66.82
2017-10-06T20:22:36.137Z,67.13
2017-10-06T20:25:03.812Z,66.74
2017-10-06T20:27:31.903Z,66.81
2017-10-06T20:30:00.414Z,67.01
2017-10-06T20:32:28.007Z,66.62
2017-10-06T20:34:56.115Z,66.63
2017-10-06T20:37:23.975Z,66.62
2017-10-06T20:39:51.567Z,66.88
2017-10-06T20:42:19.714Z,66.68
2017-10-06T20:44:47.646Z,66.50
2017-10-06T20:47:15.325Z,66.11
2017-10-06T20:49:43.136Z,66.19
2017-10-06T20:52:10.742Z,66.69
2017-10-06T20:54:38.363Z,66.66
2017-10-06T20:57:05.908Z,66.42
2017-10-06T20:59:33.703Z,66.79
2017-10-06T21:02:01.537Z,67.00
2017-10-06T21:04:29.169Z,66.99
2017-10-06T21:06:56.775Z,67.56
2017-10-06T21:09:24.392Z,67.21
2017-10-06T21:11:51.978Z,66.87
2017-10-06T21:14:19.783Z,67.37
2017-10-06T21:16:47.399Z,67.09
2017-10-06T21:19:15.053Z,67.20
2017-10-06T21:21:42.811Z,67.77
2017-10-06T21:24:10.434Z,67.55
2017-10-06T21:26:38.184Z,67.52
2017-10-06T21:29:06.510Z,67.28
2017-10-06T21:31:34.139Z,67.29
2017-10-06T21:34:01.915Z,67.20
2017-10-06T21:36:29.692Z,66.90
2017-10-06T21:38:57.325Z,67.09
2017-10-06T21:41:25.218Z,66.94
2017-10-06T21:43:52.756Z,67.38
2017-10-06T21:46:20.343Z,67.68
2017-10-06T21:48:48.468Z,67.26
2017-10-06T21:51:15.994Z,67.66
2017-10-06T21:53:43.599Z,67.51
2017-10-06T21:56:11.351Z,67.67
2017-10-06T21:58:39.103Z,67.85
2017-10-06T22:01:06.719Z,67.65
2017-10-06T22:03:34.312Z,67.48
2017-10-06T22:06:01.942Z,67.20
2017-10-06T22:08:29.576Z,66.96
2017-10-06T22:10:57.216Z,66.98
2017-10-06T22:13:24.953Z,66.74
2017-10-06T22:15:52.548Z,66.55
2017-10-06T22:18:20.125Z,66.43
2017-10-06T22:20:47.661Z,66.83
2017-10-06T22:23:15.245Z,66.40
2017-10-06T22:25:42.990Z,66.28
2017-10-06T22:28:10.575Z,66.06
2017-10-06T22:30:38.203Z,66.57
2017-10-06T22:33:05.816Z,66.19
2017-10-06T22:35:35.696Z,66.10
2017-10-06T22:38:04.786Z,65.76
2017-10-06T22:40:32.427Z,65.97
2017-10-06T22:43:00.026Z,65.91
2017-10-06T22:45:27.668Z,65.82
2017-10-06T22:47:55.525Z,66.49
2017-10-06T22:50:23.131Z,66.66
2017-10-06T22:52:50.754Z,66.40
2017-10-06T22:55:18.419Z,66.56
2017-10-06T22:57:46.168Z,66.59
2017-10-06T23:00:13.890Z,66.97
2017-10-06T23:02:41.476Z,66.48
2017-10-06T23:05:09.053Z,66.45
2017-10-06T23:07:36.644Z,65.97
2017-10-06T23:10:04.280Z,65.75
2017-10-06T23:12:31.815Z,65.54
2017-10-06T23:14:59.382Z,65.37
2017-10-06T23:17:26.962Z,65.52
2017-10-06T23:19:54.722Z,66.06
2017-10-06T23:22:22.314Z,66.76
2017-10-06T23:24:49.858Z,67.12
2017-10-06T23:27:17.591Z,67.22
2017-10-06T23:29:45.191Z,67.24
2017-10-06T23:32:12.755Z,67.57
2017-10-06T23:34:41.247Z,67.64
2017-10-06T23:37:08.841Z,67.45
2017-10-06T23:39:37.355Z,67.35
2017-10-06T23:42:04.986Z,66.99
2017-10-06T23:44:32.568Z,66.12
2017-10-06T23:47:01.449Z,65.33
2017-10-06T23:49:28.979Z,64.84
2017-10-06T23:51:56.847Z,64.47
2017-10-06T23:54:24.505Z,64.05
2017-10-06T23:56:52.087Z,63.52
2017-10-06T23:59:19.641Z,63.39
